sensor_id;sensor_type;location;lat;lon;timestamp;pressure;altitude;pressure_sealevel;temperature;humidity
59650;BME280;46162;57.568;25.814;2024-01-27T00:01:05;100689.09;;;-3.75;100.00
59650;BME280;46162;57.568;25.814;2024-01-27T00:03:35;100687.13;;;-3.70;100.00
59650;BME280;46162;57.568;25.814;2024-01-27T00:06:04;100688.16;;;-3.74;100.00
59650;BME280;46162;57.568;25.814;2024-01-27T00:08:33;100688.25;;;-3.75;100.00
59650;BME280;46162;57.568;25.814;2024-01-27T00:11:01;100691.19;;;-3.61;100.00
59650;BME280;46162;57.568;25.814;2024-01-27T00:13:30;100691.25;;;-3.62;100.00
59650;BME280;46162;57.568;25.814;2024-01-27T00:15:58;100679.84;;;-3.63;100.00
59650;BME280;46162;57.568;25.814;2024-01-27T00:18:27;100692.94;;;-3.61;100.00
59650;BME280;46162;57.568;25.814;2024-01-27T00:20:58;100700.88;;;-3.61;100.00
59650;BME280;46162;57.568;25.814;2024-01-27T00:23:26;100699.50;;;-3.72;100.00
59650;BME280;46162;57.568;25.814;2024-01-27T00:25:55;100686.09;;;-3.65;100.00
59650;BME280;46162;57.568;25.814;2024-01-27T00:28:24;100683.56;;;-3.69;100.00
59650;BME280;46162;57.568;25.814;2024-01-27T00:30:52;100684.63;;;-3.73;100.00
59650;BME280;46162;57.568;25.814;2024-01-27T00:33:21;100684.34;;;-3.67;100.00
59650;BME280;46162;57.568;25.814;2024-01-27T00:35:50;100679.16;;;-3.68;100.00
59650;BME280;46162;57.568;25.814;2024-01-27T00:38:20;100684.50;;;-3.70;100.00
59650;BME280;46162;57.568;25.814;2024-01-27T00:40:48;100678.97;;;-3.63;100.00
59650;BME280;46162;57.568;25.814;2024-01-27T00:43:17;100684.34;;;-3.67;100.00
59650;BME280;46162;57.568;25.814;2024-01-27T00:45:46;100684.63;;;-3.73;100.00
59650;BME280;46162;57.568;25.814;2024-01-27T00:48:14;100683.50;;;-3.67;100.00
59650;BME280;46162;57.568;25.814;2024-01-27T00:50:43;100677.28;;;-3.66;100.00
59650;BME280;46162;57.568;25.814;2024-01-27T00:53:11;100679.84;;;-3.63;100.00
59650;BME280;46162;57.568;25.814;2024-01-27T00:55:42;100687.66;;;-3.61;100.00
59650;BME280;46162;57.568;25.814;2024-01-27T00:58:10;100681.34;;;-3.57;100.00
59650;BME280;46162;57.568;25.814;2024-01-27T01:00:39;100684.84;;;-3.57;100.00
59650;BME280;46162;57.568;25.814;2024-01-27T01:03:08;100682.28;;;-3.58;100.00
59650;BME280;46162;57.568;25.814;2024-01-27T01:05:36;100695.03;;;-3.70;100.00
59650;BME280;46162;57.568;25.814;2024-01-27T01:08:05;100699.22;;;-3.64;100.00
59650;BME280;46162;57.568;25.814;2024-01-27T01:10:34;100693.06;;;-3.64;100.00
59650;BME280;46162;57.568;25.814;2024-01-27T01:13:05;100687.81;;;-3.64;100.00
59650;BME280;46162;57.568;25.814;2024-01-27T01:15:33;100688.84;;;-3.69;100.00
59650;BME280;46162;57.568;25.814;2024-01-27T01:18:02;100680.91;;;-3.69;100.00
59650;BME280;46162;57.568;25.814;2024-01-27T01:20:32;100688.06;;;-3.71;100.00
59650;BME280;46162;57.568;25.814;2024-01-27T01:23:00;100684.66;;;-3.74;100.00
59650;BME280;46162;57.568;25.814;2024-01-27T01:25:29;100692.53;;;-3.73;100.00
59650;BME280;46162;57.568;25.814;2024-01-27T01:27:58;100688.91;;;-3.70;100.00
59650;BME280;46162;57.568;25.814;2024-01-27T01:30:29;100696.88;;;-3.72;100.00
59650;BME280;46162;57.568;25.814;2024-01-27T01:32:57;100682.28;;;-3.80;100.00
59650;BME280;46162;57.568;25.814;2024-01-27T01:35:26;100685.72;;;-3.78;100.00
59650;BME280;46162;57.568;25.814;2024-01-27T01:37:54;100685.72;;;-3.78;100.00
59650;BME280;46162;57.568;25.814;2024-01-27T01:40:23;100690.25;;;-3.82;100.00
59650;BME280;46162;57.568;25.814;2024-01-27T01:42:52;100689.31;;;-3.81;100.00
59650;BME280;46162;57.568;25.814;2024-01-27T01:45:20;100696.47;;;-3.83;100.00
59650;BME280;46162;57.568;25.814;2024-01-27T01:47:50;100697.53;;;-3.89;100.00
59650;BME280;46162;57.568;25.814;2024-01-27T01:50:20;100688.78;;;-3.89;100.00
59650;BME280;46162;57.568;25.814;2024-01-27T01:52:49;100700.16;;;-3.89;100.00
59650;BME280;46162;57.568;25.814;2024-01-27T01:55:20;100694.03;;;-3.89;100.00
59650;BME280;46162;57.568;25.814;2024-01-27T01:57:48;100694.00;;;-3.87;100.00
59650;BME280;46162;57.568;25.814;2024-01-27T02:00:17;100694.97;;;-3.90;100.00
59650;BME280;46162;57.568;25.814;2024-01-27T02:02:46;100698.50;;;-3.91;100.00
59650;BME280;46162;57.568;25.814;2024-01-27T02:05:16;100702.09;;;-3.92;100.00
59650;BME280;46162;57.568;25.814;2024-01-27T02:07:45;100699.31;;;-3.89;100.00
59650;BME280;46162;57.568;25.814;2024-01-27T02:10:14;100692.03;;;-3.82;100.00
59650;BME280;46162;57.568;25.814;2024-01-27T02:12:44;100699.28;;;-3.87;100.00
59650;BME280;46162;57.568;25.814;2024-01-27T02:15:14;100698.34;;;-3.86;100.00
59650;BME280;46162;57.568;25.814;2024-01-27T02:17:42;100692.22;;;-3.87;100.00
59650;BME280;46162;57.568;25.814;2024-01-27T02:20:11;100693.19;;;-3.90;100.00
59650;BME280;46162;57.568;25.814;2024-01-27T02:22:42;100703.50;;;-3.83;100.00
59650;BME280;46162;57.568;25.814;2024-01-27T02:25:12;100700.94;;;-3.85;100.00
59650;BME280;46162;57.568;25.814;2024-01-27T02:27:40;100699.94;;;-3.82;100.00
59650;BME280;46162;57.568;25.814;2024-01-27T02:30:09;100700.69;;;-3.79;100.00
59650;BME280;46162;57.568;25.814;2024-01-27T02:32:38;100703.22;;;-3.76;100.00
59650;BME280;46162;57.568;25.814;2024-01-27T02:35:07;100702.28;;;-3.75;100.00
59650;BME280;46162;57.568;25.814;2024-01-27T02:37:37;100704.13;;;-3.77;100.00
59650;BME280;46162;57.568;25.814;2024-01-27T02:40:06;100702.25;;;-3.73;100.00
59650;BME280;46162;57.568;25.814;2024-01-27T02:42:38;100698.97;;;-3.80;100.00
59650;BME280;46162;57.568;25.814;2024-01-27T02:45:09;100697.00;;;-3.75;100.00
59650;BME280;46162;57.568;25.814;2024-01-27T02:47:38;100703.94;;;-3.72;100.00
59650;BME280;46162;57.568;25.814;2024-01-27T02:50:08;100711.13;;;-3.76;100.00
59650;BME280;46162;57.568;25.814;2024-01-27T02:52:37;100716.41;;;-3.76;100.00
59650;BME280;46162;57.568;25.814;2024-01-27T02:55:06;100714.03;;;-3.83;100.00
59650;BME280;46162;57.568;25.814;2024-01-27T02:57:35;100723.75;;;-3.84;100.00
59650;BME280;46162;57.568;25.814;2024-01-27T03:00:06;100728.28;;;-3.87;100.00
59650;BME280;46162;57.568;25.814;2024-01-27T03:02:35;100721.28;;;-3.89;100.00
59650;BME280;46162;57.568;25.814;2024-01-27T03:05:04;100722.16;;;-3.88;100.00
59650;BME280;46162;57.568;25.814;2024-01-27T03:07:34;100725.69;;;-3.89;100.00
59650;BME280;46162;57.568;25.814;2024-01-27T03:10:03;100725.69;;;-3.89;100.00
59650;BME280;46162;57.568;25.814;2024-01-27T03:12:32;100735.34;;;-3.88;100.00
59650;BME280;46162;57.568;25.814;2024-01-27T03:15:01;100737.00;;;-3.85;100.00
59650;BME280;46162;57.568;25.814;2024-01-27T03:17:31;100733.56;;;-3.87;100.00
59650;BME280;46162;57.568;25.814;2024-01-27T03:20:00;100728.03;;;-3.81;100.00
59650;BME280;46162;57.568;25.814;2024-01-27T03:22:29;100736.75;;;-3.79;100.00
59650;BME280;46162;57.568;25.814;2024-01-27T03:24:58;100740.31;;;-3.80;100.00
59650;BME280;46162;57.568;25.814;2024-01-27T03:27:27;100746.47;;;-3.80;100.00
59650;BME280;46162;57.568;25.814;2024-01-27T03:29:59;100743.66;;;-3.75;100.00
59650;BME280;46162;57.568;25.814;2024-01-27T03:32:28;100748.16;;;-3.79;100.00
59650;BME280;46162;57.568;25.814;2024-01-27T03:35:00;100749.72;;;-3.73;100.00
59650;BME280;46162;57.568;25.814;2024-01-27T03:37:29;100756.72;;;-3.72;100.00
59650;BME280;46162;57.568;25.814;2024-01-27T03:39:57;100750.69;;;-3.76;100.00
59650;BME280;46162;57.568;25.814;2024-01-27T03:42:26;100755.06;;;-3.75;100.00
59650;BME280;46162;57.568;25.814;2024-01-27T03:44:55;100755.09;;;-3.76;100.00
59650;BME280;46162;57.568;25.814;2024-01-27T03:47:24;100756.66;;;-3.71;100.00
59650;BME280;46162;57.568;25.814;2024-01-27T03:49:52;100760.19;;;-3.72;100.00
59650;BME280;46162;57.568;25.814;2024-01-27T03:52:23;100764.56;;;-3.71;100.00
59650;BME280;46162;57.568;25.814;2024-01-27T03:54:52;100767.09;;;-3.68;100.00
59650;BME280;46162;57.568;25.814;2024-01-27T03:57:20;100767.91;;;-3.65;100.00
59650;BME280;46162;57.568;25.814;2024-01-27T03:59:49;100775.63;;;-3.61;100.00
59650;BME280;46162;57.568;25.814;2024-01-27T04:02:18;100772.25;;;-3.64;100.00
59650;BME280;46162;57.568;25.814;2024-01-27T04:04:46;100775.81;;;-3.65;100.00
59650;BME280;46162;57.568;25.814;2024-01-27T04:07:16;100776.72;;;-3.67;100.00
59650;BME280;46162;57.568;25.814;2024-01-27T04:09:46;100787.22;;;-3.65;100.00
59650;BME280;46162;57.568;25.814;2024-01-27T04:12:15;100785.59;;;-3.69;100.00
59650;BME280;46162;57.568;25.814;2024-01-27T04:14:43;100792.63;;;-3.68;100.00
59650;BME280;46162;57.568;25.814;2024-01-27T04:17:12;100787.03;;;-3.60;100.00
59650;BME280;46162;57.568;25.814;2024-01-27T04:19:41;100800.13;;;-3.57;100.00
59650;BME280;46162;57.568;25.814;2024-01-27T04:22:10;100799.00;;;-3.52;100.00
59650;BME280;46162;57.568;25.814;2024-01-27T04:24:39;100800.50;;;-3.44;100.00
59650;BME280;46162;57.568;25.814;2024-01-27T04:27:09;100802.63;;;-3.54;100.00
59650;BME280;46162;57.568;25.814;2024-01-27T04:29:38;100801.78;;;-3.55;100.00
59650;BME280;46162;57.568;25.814;2024-01-27T04:32:07;100804.28;;;-3.52;100.00
59650;BME280;46162;57.568;25.814;2024-01-27T04:34:35;100807.78;;;-3.51;100.00
59650;BME280;46162;57.568;25.814;2024-01-27T04:37:04;100809.38;;;-3.47;100.00
59650;BME280;46162;57.568;25.814;2024-01-27T04:39:33;100815.47;;;-3.45;100.00
59650;BME280;46162;57.568;25.814;2024-01-27T04:42:03;100822.94;;;-3.56;100.00
59650;BME280;46162;57.568;25.814;2024-01-27T04:44:35;100823.53;;;-3.48;100.00
59650;BME280;46162;57.568;25.814;2024-01-27T04:47:04;100831.06;;;-3.61;100.00
59650;BME280;46162;57.568;25.814;2024-01-27T04:49:33;100830.50;;;-3.47;100.00
59650;BME280;46162;57.568;25.814;2024-01-27T04:52:02;100834.94;;;-3.48;100.00
59650;BME280;46162;57.568;25.814;2024-01-27T04:54:31;100834.09;;;-3.48;100.00
59650;BME280;46162;57.568;25.814;2024-01-27T04:57:00;100831.78;;;-3.57;100.00
59650;BME280;46162;57.568;25.814;2024-01-27T04:59:28;100841.88;;;-3.45;100.00
59650;BME280;46162;57.568;25.814;2024-01-27T05:01:58;100846.75;;;-3.58;100.00
59650;BME280;46162;57.568;25.814;2024-01-27T05:04:27;100849.44;;;-3.59;100.00
59650;BME280;46162;57.568;25.814;2024-01-27T05:06:56;100858.22;;;-3.59;100.00
59650;BME280;46162;57.568;25.814;2024-01-27T05:09:25;100849.53;;;-3.61;100.00
59650;BME280;46162;57.568;25.814;2024-01-27T05:11:54;100853.34;;;-3.70;100.00
59650;BME280;46162;57.568;25.814;2024-01-27T05:14:22;100858.50;;;-3.67;100.00
59650;BME280;46162;57.568;25.814;2024-01-27T05:16:51;100866.78;;;-3.52;100.00
59650;BME280;46162;57.568;25.814;2024-01-27T05:19:21;100863.63;;;-3.62;100.00
59650;BME280;46162;57.568;25.814;2024-01-27T05:21:50;100868.22;;;-3.67;100.00
59650;BME280;46162;57.568;25.814;2024-01-27T05:24:19;100870.44;;;-3.56;100.00
59650;BME280;46162;57.568;25.814;2024-01-27T05:26:47;100881.13;;;-3.59;100.00
59650;BME280;46162;57.568;25.814;2024-01-27T05:29:17;100877.06;;;-3.68;100.00
59650;BME280;46162;57.568;25.814;2024-01-27T05:31:45;100880.38;;;-3.63;100.00
59650;BME280;46162;57.568;25.814;2024-01-27T05:34:14;100892.00;;;-3.69;100.00
59650;BME280;46162;57.568;25.814;2024-01-27T05:36:44;100893.63;;;-3.64;100.00
59650;BME280;46162;57.568;25.814;2024-01-27T05:39:13;100889.69;;;-3.53;100.00
59650;BME280;46162;57.568;25.814;2024-01-27T05:41:42;100902.09;;;-3.56;100.00
59650;BME280;46162;57.568;25.814;2024-01-27T05:44:11;100904.06;;;-3.61;100.00
59650;BME280;46162;57.568;25.814;2024-01-27T05:46:40;100905.19;;;-3.69;100.00
59650;BME280;46162;57.568;25.814;2024-01-27T05:49:09;100905.91;;;-3.63;100.00
59650;BME280;46162;57.568;25.814;2024-01-27T05:51:38;100922.13;;;-3.74;100.00
59650;BME280;46162;57.568;25.814;2024-01-27T05:54:09;100913.94;;;-3.67;100.00
59650;BME280;46162;57.568;25.814;2024-01-27T05:56:40;100922.06;;;-3.73;100.00
59650;BME280;46162;57.568;25.814;2024-01-27T05:59:09;100922.19;;;-3.76;100.00
59650;BME280;46162;57.568;25.814;2024-01-27T06:01:38;100915.13;;;-3.75;100.00
59650;BME280;46162;57.568;25.814;2024-01-27T06:04:08;100921.84;;;-3.67;100.00
59650;BME280;46162;57.568;25.814;2024-01-27T06:06:38;100924.84;;;-3.76;100.00
59650;BME280;46162;57.568;25.814;2024-01-27T06:09:09;100928.50;;;-3.56;100.00
59650;BME280;46162;57.568;25.814;2024-01-27T06:11:39;100933.97;;;-3.61;100.00
59650;BME280;46162;57.568;25.814;2024-01-27T06:14:08;100934.75;;;-3.59;100.00
59650;BME280;46162;57.568;25.814;2024-01-27T06:16:37;100932.72;;;-3.51;100.00
59650;BME280;46162;57.568;25.814;2024-01-27T06:19:06;100938.84;;;-3.50;100.00
59650;BME280;46162;57.568;25.814;2024-01-27T06:21:35;100944.00;;;-3.47;100.00
59650;BME280;46162;57.568;25.814;2024-01-27T06:24:04;100939.75;;;-3.51;100.00
59650;BME280;46162;57.568;25.814;2024-01-27T06:26:34;100938.19;;;-3.57;100.00
59650;BME280;46162;57.568;25.814;2024-01-27T06:29:04;100955.13;;;-3.62;100.00
59650;BME280;46162;57.568;25.814;2024-01-27T06:31:33;100953.59;;;-3.68;100.00
59650;BME280;46162;57.568;25.814;2024-01-27T06:34:02;100955.28;;;-3.67;100.00
59650;BME280;46162;57.568;25.814;2024-01-27T06:36:31;100954.28;;;-3.63;100.00
59650;BME280;46162;57.568;25.814;2024-01-27T06:39:01;100958.59;;;-3.60;100.00
59650;BME280;46162;57.568;25.814;2024-01-27T06:41:30;100964.84;;;-3.63;100.00
59650;BME280;46162;57.568;25.814;2024-01-27T06:44:00;100960.59;;;-3.69;100.00
59650;BME280;46162;57.568;25.814;2024-01-27T06:46:28;100968.78;;;-3.76;100.00
59650;BME280;46162;57.568;25.814;2024-01-27T06:48:57;100967.50;;;-3.64;100.00
59650;BME280;46162;57.568;25.814;2024-01-27T06:51:26;100958.91;;;-3.70;100.00
59650;BME280;46162;57.568;25.814;2024-01-27T06:53:55;100962.34;;;-3.68;100.00
59650;BME280;46162;57.568;25.814;2024-01-27T06:56:24;100968.16;;;-3.58;100.00
59650;BME280;46162;57.568;25.814;2024-01-27T06:58:52;100976.19;;;-3.61;100.00
59650;BME280;46162;57.568;25.814;2024-01-27T07:01:22;100972.91;;;-3.68;100.00
59650;BME280;46162;57.568;25.814;2024-01-27T07:03:51;100978.31;;;-3.71;100.00
59650;BME280;46162;57.568;25.814;2024-01-27T07:06:20;100989.88;;;-3.75;100.00
59650;BME280;46162;57.568;25.814;2024-01-27T07:08:49;100993.91;;;-3.64;100.00
59650;BME280;46162;57.568;25.814;2024-01-27T07:11:17;101001.16;;;-3.71;100.00
59650;BME280;46162;57.568;25.814;2024-01-27T07:13:46;101004.69;;;-3.71;100.00
59650;BME280;46162;57.568;25.814;2024-01-27T07:16:15;101010.59;;;-3.64;100.00
59650;BME280;46162;57.568;25.814;2024-01-27T07:18:45;101004.03;;;-3.77;100.00
59650;BME280;46162;57.568;25.814;2024-01-27T07:21:15;101019.75;;;-3.74;100.00
59650;BME280;46162;57.568;25.814;2024-01-27T07:23:45;101014.84;;;-3.60;100.00
59650;BME280;46162;57.568;25.814;2024-01-27T07:26:15;101013.31;;;-3.65;100.00
59650;BME280;46162;57.568;25.814;2024-01-27T07:28:44;101007.38;;;-3.72;100.00
59650;BME280;46162;57.568;25.814;2024-01-27T07:31:13;101031.25;;;-3.77;100.00
59650;BME280;46162;57.568;25.814;2024-01-27T07:33:42;101029.44;;;-3.75;100.00
59650;BME280;46162;57.568;25.814;2024-01-27T07:36:13;101032.03;;;-3.73;100.00
59650;BME280;46162;57.568;25.814;2024-01-27T07:38:42;101031.97;;;-3.72;100.00
59650;BME280;46162;57.568;25.814;2024-01-27T07:41:11;101031.97;;;-3.72;100.00
59650;BME280;46162;57.568;25.814;2024-01-27T07:43:40;101038.06;;;-3.70;100.00
59650;BME280;46162;57.568;25.814;2024-01-27T07:46:09;101052.94;;;-3.67;100.00
59650;BME280;46162;57.568;25.814;2024-01-27T07:48:38;101045.94;;;-3.68;100.00
59650;BME280;46162;57.568;25.814;2024-01-27T07:51:06;101064.16;;;-3.60;100.00
59650;BME280;46162;57.568;25.814;2024-01-27T07:53:37;101071.03;;;-3.56;100.00
59650;BME280;46162;57.568;25.814;2024-01-27T07:56:07;101066.63;;;-3.56;100.00
59650;BME280;46162;57.568;25.814;2024-01-27T07:58:38;101070.94;;;-3.53;100.00
59650;BME280;46162;57.568;25.814;2024-01-27T08:01:07;101071.56;;;-3.47;100.00
59650;BME280;46162;57.568;25.814;2024-01-27T08:03:36;101070.59;;;-3.44;100.00
59650;BME280;46162;57.568;25.814;2024-01-27T08:06:06;101077.47;;;-3.38;100.00
59650;BME280;46162;57.568;25.814;2024-01-27T08:08:38;101082.66;;;-3.37;100.00
59650;BME280;46162;57.568;25.814;2024-01-27T08:11:07;101092.25;;;-3.34;100.00
59650;BME280;46162;57.568;25.814;2024-01-27T08:13:36;101084.41;;;-3.36;100.00
59650;BME280;46162;57.568;25.814;2024-01-27T08:16:05;101093.16;;;-3.34;100.00
59650;BME280;46162;57.568;25.814;2024-01-27T08:18:36;101089.59;;;-3.33;100.00
59650;BME280;46162;57.568;25.814;2024-01-27T08:21:06;101093.16;;;-3.34;100.00
59650;BME280;46162;57.568;25.814;2024-01-27T08:23:35;101096.09;;;-3.43;100.00
59650;BME280;46162;57.568;25.814;2024-01-27T08:26:05;101094.00;;;-3.33;100.00
59650;BME280;46162;57.568;25.814;2024-01-27T08:28:34;101093.56;;;-3.46;100.00
59650;BME280;46162;57.568;25.814;2024-01-27T08:31:03;101105.63;;;-3.39;100.00
59650;BME280;46162;57.568;25.814;2024-01-27T08:33:32;101108.38;;;-3.42;100.00
59650;BME280;46162;57.568;25.814;2024-01-27T08:36:01;101113.50;;;-3.37;100.00
59650;BME280;46162;57.568;25.814;2024-01-27T08:38:29;101126.44;;;-3.30;100.00
59650;BME280;46162;57.568;25.814;2024-01-27T08:41:00;101119.78;;;-3.41;100.00
59650;BME280;46162;57.568;25.814;2024-01-27T08:43:30;101128.59;;;-3.41;100.00
59650;BME280;46162;57.568;25.814;2024-01-27T08:45:59;101134.31;;;-3.28;100.00
59650;BME280;46162;57.568;25.814;2024-01-27T08:48:27;101138.88;;;-3.33;100.00
59650;BME280;46162;57.568;25.814;2024-01-27T08:50:56;101144.22;;;-3.35;100.00
59650;BME280;46162;57.568;25.814;2024-01-27T08:53:25;101150.50;;;-3.39;100.00
59650;BME280;46162;57.568;25.814;2024-01-27T08:55:54;101152.13;;;-3.35;100.00
59650;BME280;46162;57.568;25.814;2024-01-27T08:58:22;101148.63;;;-3.35;100.00
59650;BME280;46162;57.568;25.814;2024-01-27T09:00:53;101155.56;;;-3.31;100.00
59650;BME280;46162;57.568;25.814;2024-01-27T09:03:21;101156.41;;;-3.31;100.00
59650;BME280;46162;57.568;25.814;2024-01-27T09:05:50;101164.25;;;-3.29;100.00
59650;BME280;46162;57.568;25.814;2024-01-27T09:08:19;101181.41;;;-3.41;100.00
59650;BME280;46162;57.568;25.814;2024-01-27T09:10:48;101177.63;;;-3.34;100.00
59650;BME280;46162;57.568;25.814;2024-01-27T09:13:16;101184.78;;;-3.37;100.00
59650;BME280;46162;57.568;25.814;2024-01-27T09:15:45;101193.97;;;-3.49;100.00
59650;BME280;46162;57.568;25.814;2024-01-27T09:18:17;101193.09;;;-3.50;100.00
59650;BME280;46162;57.568;25.814;2024-01-27T09:20:48;101192.13;;;-3.47;100.00
59650;BME280;46162;57.568;25.814;2024-01-27T09:23:17;101199.16;;;-3.46;100.00
59650;BME280;46162;57.568;25.814;2024-01-27T09:25:46;101186.69;;;-3.41;100.00
59650;BME280;46162;57.568;25.814;2024-01-27T09:28:15;101190.03;;;-3.36;100.00
59650;BME280;46162;57.568;25.814;2024-01-27T09:30:44;101192.44;;;-3.30;100.00
59650;BME280;46162;57.568;25.814;2024-01-27T09:33:13;101187.97;;;-3.28;100.00
59650;BME280;46162;57.568;25.814;2024-01-27T09:35:45;101192.25;;;-3.23;100.00
59650;BME280;46162;57.568;25.814;2024-01-27T09:38:14;101201.34;;;-3.32;100.00
59650;BME280;46162;57.568;25.814;2024-01-27T09:40:43;101198.66;;;-3.31;100.00
59650;BME280;46162;57.568;25.814;2024-01-27T09:43:13;101205.72;;;-3.31;100.00
59650;BME280;46162;57.568;25.814;2024-01-27T09:45:42;101203.81;;;-3.28;100.00
59650;BME280;46162;57.568;25.814;2024-01-27T09:48:12;101207.28;;;-3.26;100.00
59650;BME280;46162;57.568;25.814;2024-01-27T09:50:41;101208.19;;;-3.27;100.00
59650;BME280;46162;57.568;25.814;2024-01-27T09:53:11;101203.94;;;-3.31;100.00
59650;BME280;46162;57.568;25.814;2024-01-27T09:55:40;101215.53;;;-3.36;100.00
59650;BME280;46162;57.568;25.814;2024-01-27T09:58:09;101218.81;;;-3.28;100.00
59650;BME280;46162;57.568;25.814;2024-01-27T10:00:39;101222.91;;;-3.19;100.00
59650;BME280;46162;57.568;25.814;2024-01-27T10:03:08;101220.19;;;-3.16;100.00
59650;BME280;46162;57.568;25.814;2024-01-27T10:05:38;101221.03;;;-3.16;100.00
59650;BME280;46162;57.568;25.814;2024-01-27T10:08:11;101217.38;;;-3.12;100.00
59650;BME280;46162;57.568;25.814;2024-01-27T10:10:39;101214.72;;;-3.12;100.00
59650;BME280;46162;57.568;25.814;2024-01-27T10:13:10;101212.03;;;-3.10;100.00
59650;BME280;46162;57.568;25.814;2024-01-27T10:15:42;101221.38;;;-3.00;100.00
59650;BME280;46162;57.568;25.814;2024-01-27T10:18:11;101217.75;;;-2.97;100.00
59650;BME280;46162;57.568;25.814;2024-01-27T10:20:42;101219.28;;;-2.90;100.00
59650;BME280;46162;57.568;25.814;2024-01-27T10:23:13;101217.84;;;-2.99;100.00
59650;BME280;46162;57.568;25.814;2024-01-27T10:25:43;101215.09;;;-2.96;100.00
59650;BME280;46162;57.568;25.814;2024-01-27T10:28:12;101220.91;;;-2.86;100.00
59650;BME280;46162;57.568;25.814;2024-01-27T10:30:40;101224.56;;;-2.90;100.00
59650;BME280;46162;57.568;25.814;2024-01-27T10:33:11;101223.72;;;-2.91;100.00
59650;BME280;46162;57.568;25.814;2024-01-27T10:35:41;101226.13;;;-2.85;100.00
59650;BME280;46162;57.568;25.814;2024-01-27T10:38:11;101229.66;;;-2.84;100.00
59650;BME280;46162;57.568;25.814;2024-01-27T10:40:54;101238.31;;;-2.81;100.00
59650;BME280;46162;57.568;25.814;2024-01-27T10:43:23;101233.03;;;-2.81;100.00
59650;BME280;46162;57.568;25.814;2024-01-27T10:45:52;101250.25;;;-2.69;100.00
59650;BME280;46162;57.568;25.814;2024-01-27T10:48:21;101240.81;;;-2.76;100.00
59650;BME280;46162;57.568;25.814;2024-01-27T10:50:52;101250.91;;;-2.62;100.00
59650;BME280;46162;57.568;25.814;2024-01-27T10:53:22;101250.97;;;-2.64;100.00
59650;BME280;46162;57.568;25.814;2024-01-27T10:55:57;101254.94;;;-2.77;100.00
59650;BME280;46162;57.568;25.814;2024-01-27T10:58:27;101249.44;;;-2.71;100.00
59650;BME280;46162;57.568;25.814;2024-01-27T11:00:57;101250.38;;;-2.72;100.00
59650;BME280;46162;57.568;25.814;2024-01-27T11:03:28;101251.44;;;-2.77;100.00
59650;BME280;46162;57.568;25.814;2024-01-27T11:05:58;101255.59;;;-2.70;100.00
59650;BME280;46162;57.568;25.814;2024-01-27T11:08:28;101254.56;;;-2.66;100.00
59650;BME280;46162;57.568;25.814;2024-01-27T11:10:59;101262.44;;;-2.65;100.00
59650;BME280;46162;57.568;25.814;2024-01-27T11:13:29;101258.72;;;-2.59;100.00
59650;BME280;46162;57.568;25.814;2024-01-27T11:15:58;101258.63;;;-2.56;100.00
59650;BME280;46162;57.568;25.814;2024-01-27T11:18:27;101259.56;;;-2.57;100.00
59650;BME280;46162;57.568;25.814;2024-01-27T11:20:58;101262.94;;;-2.53;100.00
59650;BME280;46162;57.568;25.814;2024-01-27T11:23:34;101272.56;;;-2.52;100.00
59650;BME280;46162;57.568;25.814;2024-01-27T11:26:06;101275.06;;;-2.48;100.00
59650;BME280;46162;57.568;25.814;2024-01-27T11:28:36;101280.28;;;-2.45;100.00
59650;BME280;46162;57.568;25.814;2024-01-27T11:31:06;101274.88;;;-2.42;100.00
59650;BME280;46162;57.568;25.814;2024-01-27T11:33:41;101284.63;;;-2.44;100.00
59650;BME280;46162;57.568;25.814;2024-01-27T11:36:19;101282.03;;;-2.45;100.00
59650;BME280;46162;57.568;25.814;2024-01-27T11:38:49;101291.63;;;-2.43;100.00
59650;BME280;46162;57.568;25.814;2024-01-27T11:41:28;101305.91;;;-2.47;100.00
59650;BME280;46162;57.568;25.814;2024-01-27T11:43:58;101311.19;;;-2.47;100.00
59650;BME280;46162;57.568;25.814;2024-01-27T11:46:28;101318.41;;;-2.52;100.00
59650;BME280;46162;57.568;25.814;2024-01-27T11:48:57;101322.09;;;-2.57;100.00
59650;BME280;46162;57.568;25.814;2024-01-27T11:51:26;101315.97;;;-2.58;100.00
59650;BME280;46162;57.568;25.814;2024-01-27T11:53:55;101323.00;;;-2.57;100.00
59650;BME280;46162;57.568;25.814;2024-01-27T11:56:24;101332.69;;;-2.57;100.00
59650;BME280;46162;57.568;25.814;2024-01-27T11:58:55;101340.47;;;-2.53;100.00
59650;BME280;46162;57.568;25.814;2024-01-27T12:01:23;101350.94;;;-2.50;100.00
59650;BME280;46162;57.568;25.814;2024-01-27T12:03:52;101343.22;;;-2.56;100.00
59650;BME280;46162;57.568;25.814;2024-01-27T12:06:22;101346.09;;;-2.62;100.00
59650;BME280;46162;57.568;25.814;2024-01-27T12:08:53;101350.56;;;-2.64;100.00
59650;BME280;46162;57.568;25.814;2024-01-27T12:11:23;101356.88;;;-2.70;100.00
59650;BME280;46162;57.568;25.814;2024-01-27T12:13:52;101361.94;;;-2.62;100.00
59650;BME280;46162;57.568;25.814;2024-01-27T12:16:23;101365.06;;;-2.51;100.00
59650;BME280;46162;57.568;25.814;2024-01-27T12:18:52;101374.84;;;-2.53;100.00
59650;BME280;46162;57.568;25.814;2024-01-27T12:21:22;101382.97;;;-2.59;100.00
59650;BME280;46162;57.568;25.814;2024-01-27T12:23:52;101385.56;;;-2.57;100.00
59650;BME280;46162;57.568;25.814;2024-01-27T12:26:22;101380.94;;;-2.51;100.00
59650;BME280;46162;57.568;25.814;2024-01-27T12:28:51;101389.81;;;-2.52;100.00
59650;BME280;46162;57.568;25.814;2024-01-27T12:31:19;101391.50;;;-2.51;100.00
59650;BME280;46162;57.568;25.814;2024-01-27T12:33:50;101393.91;;;-2.43;100.00
59650;BME280;46162;57.568;25.814;2024-01-27T12:36:20;101397.13;;;-2.35;100.00
59650;BME280;46162;57.568;25.814;2024-01-27T12:38:57;101401.16;;;-2.23;100.00
59650;BME280;46162;57.568;25.814;2024-01-27T12:41:26;101407.41;;;-2.26;100.00